Normanna, Texas
Current Conditions -  °F | °C
As of 10:55 AM on Saturday 22 Nov 2014 (Local Time) from KBEA Reporting Station
Thunderstorm Thunderstorm  
Wind Chill: 22°   Ceiling: 1800
Heat Index: 22°   Visibility: 5mi
Dew Point: 22°   Wind: 14mph
Humidity: 99%   Direction: 150°SSE
Pressure: 29.93"   Gusts: 20mph
Location:  28.53°N, 97.78°W
Report Text: KBEA 221655Z AUTO 15012G17KT 5SM +VCTSRA SCT010 BKN018 OVC031 22/22 A2993 RMK AO2 LTG DSNT N P0010 T02170215
Loading
Personal Weather Stations






























Interactive Weather Map New forecast layout! Learn more

10-Day Weather Forecast

Advertisements
Track Severe Weather on mobile